Startpagina
METAR-TAF:

METAR-TAF

Vliegvelden :

Vliegbasis Gilze-Rijen

Gilze-Rijen, Nederland

breedte: 51-34N, lengte: 004-56E, hoogte: 15 m

Actueel weer

Dit bericht is 43 minuten geleden gemaakt, om 11:25 UTC
Wind 12 kt uit het zuidzuidwesten, variërend tussen het zuidzuidoosten en het westen
Temperatuur 17°C
Vochtigheid 88%
Druk 1014 hPa
Zicht 10 km of meer
Weinig wolken op 800 ft
Verspreide wolken op 1000 ft
Gebroken wolken op 1200 ft

METAR: EHGR 041125Z AUTO 21012KT 150V270 9999 FEW008 SCT010 BKN012 17/15 Q1014 GRN

Tijdstip: 14:08 (12:08 UTC)


TAF: ontbreekt

Waarnemingen en weersverwachtingen van meer dan 4000 vliegvelden (METAR en TAF).

De beschikbare stations zijn de gele en rode punten op de kaart.

Ga met uw muis naar het station om de naam te zien.

Klik dan om waarnemingen en weersverwachtingen te zien.

kaart wijzigen: klik op de groene knoppen met een zwart kruis om in te zoomen, op de groene knop met een streepje om uit te zoomen of op de groene pijlen voor aangrenzende kaarten.


METAR-TAF: